createdAt,value
2023-01-08T00:01:42.719Z,67.75
2023-01-08T00:04:12.168Z,108.00
2023-01-08T00:06:40.946Z,110.75
2023-01-08T00:09:11.485Z,105.50
2023-01-08T00:11:40.295Z,105.50
2023-01-08T00:14:09.298Z,108.00
2023-01-08T00:16:39.302Z,116.00
2023-01-08T00:19:08.833Z,110.25
2023-01-08T00:21:37.420Z,112.50
2023-01-08T00:24:06.792Z,104.25
2023-01-08T00:26:35.429Z,110.50
2023-01-08T00:29:04.290Z,107.25
2023-01-08T00:31:33.310Z,105.25
2023-01-08T00:34:03.574Z,101.25
2023-01-08T00:36:32.145Z,107.75
2023-01-08T00:39:01.127Z,99.75
2023-01-08T00:41:29.782Z,90.75
2023-01-08T00:43:58.592Z,103.50
2023-01-08T00:46:28.141Z,98.50
2023-01-08T00:48:57.055Z,96.00
2023-01-08T00:51:27.447Z,103.25
2023-01-08T00:53:56.380Z,90.75
2023-01-08T00:56:25.077Z,90.50
2023-01-08T00:58:53.972Z,99.25
2023-01-08T01:01:22.752Z,89.50
2023-01-08T01:03:51.939Z,85.75
2023-01-08T01:06:20.629Z,89.50
2023-01-08T01:08:51.073Z,92.50
2023-01-08T01:11:22.779Z,86.50
2023-01-08T01:13:52.496Z,94.50
2023-01-08T01:16:21.321Z,96.00
2023-01-08T01:18:52.368Z,88.00
2023-01-08T01:21:24.771Z,98.00
2023-01-08T01:23:58.133Z,96.75
2023-01-08T01:26:27.478Z,88.25
2023-01-08T01:28:58.824Z,95.50
2023-01-08T01:31:29.517Z,99.25
2023-01-08T01:33:58.910Z,95.00
2023-01-08T01:36:27.769Z,99.50
2023-01-08T01:38:59.479Z,99.25
2023-01-08T01:41:31.043Z,96.50
2023-01-08T01:44:01.584Z,94.50
2023-01-08T01:46:37.950Z,99.50
2023-01-08T01:49:11.253Z,98.25
2023-01-08T01:51:46.058Z,100.75
2023-01-08T01:54:18.925Z,99.50
2023-01-08T01:56:47.979Z,95.50
2023-01-08T01:59:17.792Z,91.75
2023-01-08T02:01:47.390Z,91.75
2023-01-08T02:04:16.328Z,90.25
2023-01-08T02:06:50.260Z,94.00
2023-01-08T02:09:24.987Z,89.25
2023-01-08T02:12:14.618Z,93.25
2023-01-08T02:14:54.998Z,87.00
2023-01-08T02:17:33.190Z,71.50
2023-01-08T02:20:09.953Z,86.75
2023-01-08T02:22:49.551Z,93.00
2023-01-08T02:25:31.873Z,88.25
2023-01-08T02:28:06.412Z,95.00
2023-01-08T02:30:35.342Z,82.50
2023-01-08T02:33:03.947Z,86.50
2023-01-08T02:35:41.973Z,92.00
2023-01-08T02:38:14.537Z,92.00
2023-01-08T02:40:54.580Z,87.25
2023-01-08T02:43:31.014Z,82.50
2023-01-08T02:46:03.122Z,86.50
2023-01-08T02:48:37.724Z,93.25
2023-01-08T02:51:11.348Z,93.00
2023-01-08T02:53:44.238Z,92.75
2023-01-08T02:56:16.905Z,95.75
2023-01-08T02:58:48.561Z,83.00
2023-01-08T03:01:19.604Z,91.00
2023-01-08T03:03:53.454Z,90.50
2023-01-08T03:06:23.265Z,92.50
2023-01-08T03:08:54.136Z,86.00
2023-01-08T03:11:25.212Z,90.50
2023-01-08T03:13:59.079Z,84.75
2023-01-08T03:16:34.850Z,91.25
2023-01-08T03:19:10.822Z,86.75
2023-01-08T03:21:42.578Z,93.50
2023-01-08T03:24:15.836Z,49.00
2023-01-08T03:26:48.243Z,85.25
2023-01-08T03:29:22.201Z,90.25
2023-01-08T03:31:52.969Z,75.00
2023-01-08T03:34:23.011Z,95.25
2023-01-08T03:36:55.094Z,89.00
2023-01-08T03:39:30.018Z,90.75
2023-01-08T03:42:02.767Z,91.75
2023-01-08T03:44:32.820Z,86.25
2023-01-08T03:47:01.716Z,93.00
2023-01-08T03:49:31.286Z,93.75
2023-01-08T03:52:00.119Z,89.75
2023-01-08T03:54:32.989Z,96.50
2023-01-08T03:57:01.908Z,88.25
2023-01-08T03:59:30.403Z,77.75
2023-01-08T04:02:00.760Z,88.50
2023-01-08T04:04:29.614Z,89.00
2023-01-08T04:06:58.538Z,84.50
2023-01-08T04:09:27.090Z,90.25
2023-01-08T04:11:56.004Z,81.50
2023-01-08T04:14:24.584Z,78.25
2023-01-08T04:16:53.392Z,83.50
2023-01-08T04:19:23.564Z,86.25
2023-01-08T04:21:52.660Z,80.75
2023-01-08T04:24:21.552Z,92.25
2023-01-08T04:26:50.436Z,78.25
2023-01-08T04:29:18.964Z,87.75
2023-01-08T04:31:47.778Z,85.00
2023-01-08T04:34:16.446Z,70.50
2023-01-08T04:36:46.693Z,88.75
2023-01-08T04:39:15.299Z,93.75
2023-01-08T04:41:44.371Z,79.25
2023-01-08T04:44:13.054Z,89.25
2023-01-08T04:46:41.997Z,86.50
2023-01-08T04:49:11.586Z,89.50
2023-01-08T04:51:41.013Z,86.75
2023-01-08T04:54:11.036Z,85.25
2023-01-08T04:56:39.948Z,86.00
2023-01-08T04:59:08.557Z,82.50
2023-01-08T05:01:37.647Z,85.75
2023-01-08T05:04:06.740Z,83.50
2023-01-08T05:06:35.634Z,86.25
2023-01-08T05:09:05.132Z,90.50
2023-01-08T05:11:37.617Z,87.50
2023-01-08T05:14:06.683Z,87.75
2023-01-08T05:16:35.577Z,84.75
2023-01-08T05:19:04.176Z,75.00
2023-01-08T05:21:33.073Z,77.50
2023-01-08T05:24:01.601Z,88.25
2023-01-08T05:26:30.397Z,87.50
2023-01-08T05:29:00.652Z,84.75
2023-01-08T05:31:29.643Z,89.50
2023-01-08T05:33:59.899Z,88.75
2023-01-08T05:36:29.094Z,87.75
2023-01-08T05:38:57.665Z,91.75
2023-01-08T05:41:26.613Z,93.00
2023-01-08T05:43:55.223Z,87.75
2023-01-08T05:46:25.603Z,83.50
2023-01-08T05:48:54.207Z,83.50
2023-01-08T05:51:23.082Z,86.25
2023-01-08T05:53:51.642Z,86.25
2023-01-08T05:56:20.603Z,84.25
2023-01-08T05:58:49.191Z,87.75
2023-01-08T06:01:18.180Z,86.00
2023-01-08T06:03:48.178Z,86.75
2023-01-08T06:06:17.150Z,92.75
2023-01-08T06:08:45.858Z,88.50
2023-01-08T06:11:15.140Z,89.75
2023-01-08T06:13:44.919Z,84.75
2023-01-08T06:16:14.270Z,80.00
2023-01-08T06:18:42.906Z,74.25
2023-01-08T06:21:13.559Z,76.75
2023-01-08T06:23:42.605Z,79.00
2023-01-08T06:26:11.758Z,77.25
2023-01-08T06:28:40.362Z,67.00
2023-01-08T06:31:09.221Z,72.50
2023-01-08T06:33:37.844Z,68.75
2023-01-08T06:36:07.351Z,64.00
2023-01-08T06:38:38.370Z,70.25
2023-01-08T06:41:08.820Z,77.00
2023-01-08T06:43:37.953Z,71.50
2023-01-08T06:46:08.810Z,78.50
2023-01-08T06:48:38.390Z,73.67
2023-01-08T06:51:07.929Z,72.25
2023-01-08T06:53:38.324Z,71.75
2023-01-08T06:56:09.539Z,68.00
2023-01-08T06:58:39.652Z,70.00
2023-01-08T07:01:08.635Z,70.50
2023-01-08T07:03:37.167Z,135.25
2023-01-08T07:06:06.655Z,83.00
2023-01-08T07:08:35.242Z,74.00
2023-01-08T07:11:05.929Z,87.75
2023-01-08T07:13:34.665Z,84.75
2023-01-08T07:16:07.325Z,80.00
2023-01-08T07:18:36.250Z,80.75
2023-01-08T07:21:06.614Z,22.00
2023-01-08T07:23:35.670Z,80.50
2023-01-08T07:26:07.644Z,85.75
2023-01-08T07:28:36.437Z,87.00
2023-01-08T07:31:06.921Z,93.25
2023-01-08T07:33:35.936Z,94.50
2023-01-08T07:36:06.041Z,84.75
2023-01-08T07:38:34.531Z,87.25
2023-01-08T07:41:04.668Z,85.00
2023-01-08T07:43:35.394Z,77.00
2023-01-08T07:46:05.330Z,86.00
2023-01-08T07:48:34.272Z,85.75
2023-01-08T07:51:04.010Z,83.50
2023-01-08T07:53:32.737Z,111.25
2023-01-08T07:56:02.324Z,90.75
2023-01-08T07:58:30.910Z,79.00
2023-01-08T08:01:01.965Z,45.50
2023-01-08T08:03:30.608Z,77.00
2023-01-08T08:06:01.223Z,81.75
2023-01-08T08:08:29.857Z,67.25
2023-01-08T08:10:58.705Z,71.00
2023-01-08T08:13:27.415Z,68.00
2023-01-08T08:15:56.284Z,74.00
2023-01-08T08:18:26.433Z,73.25
2023-01-08T08:20:55.261Z,171.33
2023-01-08T08:23:23.867Z,61.75
2023-01-08T08:25:52.980Z,75.25
2023-01-08T08:28:21.887Z,91.75
2023-01-08T08:30:52.743Z,91.50
2023-01-08T08:33:21.417Z,78.25
2023-01-08T08:35:52.124Z,131.75
2023-01-08T08:38:23.833Z,73.00
2023-01-08T08:40:52.997Z,81.25
2023-01-08T08:43:21.533Z,73.75
2023-01-08T08:45:50.445Z,66.00
2023-01-08T08:48:19.096Z,70.50
2023-01-08T08:50:48.055Z,58.50
2023-01-08T08:53:18.076Z,71.50
2023-01-08T08:55:47.241Z,62.50
2023-01-08T08:58:15.880Z,66.00
2023-01-08T09:00:45.157Z,64.00
2023-01-08T09:03:15.248Z,71.25
2023-01-08T09:05:44.544Z,64.25
2023-01-08T09:08:13.869Z,68.25
2023-01-08T09:10:44.376Z,64.50
2023-01-08T09:13:13.195Z,63.00
2023-01-08T09:15:42.125Z,60.25
2023-01-08T09:18:11.042Z,69.00
2023-01-08T09:20:40.417Z,64.50
2023-01-08T09:23:08.895Z,69.00
2023-01-08T09:25:37.807Z,62.00
2023-01-08T09:28:09.944Z,62.00
2023-01-08T09:30:39.075Z,60.00
2023-01-08T09:33:07.804Z,63.33
2023-01-08T09:35:36.701Z,60.00
2023-01-08T09:38:05.279Z,62.00
2023-01-08T09:40:40.857Z,64.75
2023-01-08T09:43:18.446Z,62.67
2023-01-08T09:45:51.843Z,58.33
2023-01-08T09:48:23.847Z,77.25
2023-01-08T09:50:52.929Z,105.75
2023-01-08T09:53:22.276Z,60.25
2023-01-08T09:56:09.299Z,57.75
2023-01-08T09:58:44.802Z,60.67
2023-01-08T10:01:17.159Z,58.00
2023-01-08T10:03:49.904Z,60.00
2023-01-08T10:06:19.350Z,58.67
2023-01-08T10:08:48.039Z,58.00
2023-01-08T10:11:17.674Z,59.67
2023-01-08T10:13:52.042Z,54.33
2023-01-08T10:16:28.969Z,56.00
2023-01-08T10:18:57.625Z,56.00
2023-01-08T10:21:31.806Z,51.50
2023-01-08T10:24:00.438Z,14.00
2023-01-08T10:26:30.977Z,47.33
2023-01-08T10:29:13.466Z,54.67
2023-01-08T10:31:48.507Z,55.33
2023-01-08T10:34:29.249Z,62.75
2023-01-08T10:36:58.309Z,57.00
2023-01-08T10:39:28.968Z,53.50
2023-01-08T10:42:05.665Z,53.50
2023-01-08T10:44:35.951Z,54.00
2023-01-08T10:47:06.557Z,54.00
2023-01-08T10:49:41.931Z,51.50
2023-01-08T10:52:26.045Z,52.50
2023-01-08T10:54:55.237Z,51.00
2023-01-08T10:57:27.591Z,52.00
2023-01-08T10:59:58.337Z,51.50
2023-01-08T11:02:38.673Z,53.00
2023-01-08T11:05:11.542Z,52.75
2023-01-08T11:07:41.535Z,51.00
2023-01-08T11:10:24.352Z,50.50
2023-01-08T11:12:58.419Z,58.00
2023-01-08T11:15:38.871Z,52.00
2023-01-08T11:18:23.842Z,49.25
2023-01-08T11:20:53.980Z,49.00
2023-01-08T11:23:25.130Z,48.25
2023-01-08T11:26:01.285Z,48.00
2023-01-08T11:28:40.658Z,46.50
2023-01-08T11:31:16.272Z,48.00
2023-01-08T11:33:48.898Z,46.75
2023-01-08T11:36:24.465Z,44.25
2023-01-08T11:38:53.446Z,45.25
2023-01-08T11:41:44.513Z,45.50
2023-01-08T11:44:30.080Z,45.50
2023-01-08T11:47:10.067Z,45.00
2023-01-08T11:49:56.168Z,45.75
2023-01-08T11:52:37.796Z,43.75
2023-01-08T11:55:17.306Z,47.00
2023-01-08T11:58:00.755Z,44.75
2023-01-08T12:00:49.922Z,44.00
2023-01-08T12:03:30.921Z,46.25
2023-01-08T12:06:12.164Z,43.00
2023-01-08T12:08:52.147Z,46.75
2023-01-08T12:11:27.091Z,55.33
2023-01-08T12:14:17.148Z,50.75
2023-01-08T12:17:01.522Z,45.25
2023-01-08T12:19:49.894Z,45.25
2023-01-08T12:22:32.400Z,44.00
2023-01-08T12:25:39.289Z,45.00
2023-01-08T12:28:34.096Z,44.75
2023-01-08T12:31:25.714Z,42.50
2023-01-08T12:33:58.112Z,39.75
2023-01-08T12:36:34.812Z,45.25
2023-01-08T12:39:09.797Z,39.25
2023-01-08T12:41:42.837Z,42.50
2023-01-08T12:44:13.499Z,41.50
2023-01-08T12:46:46.158Z,43.00
2023-01-08T12:49:23.784Z,42.00
2023-01-08T12:52:00.782Z,38.25
2023-01-08T12:54:39.022Z,43.50
2023-01-08T12:57:13.394Z,41.00
2023-01-08T12:59:49.309Z,39.00
2023-01-08T13:02:35.661Z,39.25
2023-01-08T13:05:15.947Z,39.00
2023-01-08T13:07:48.077Z,38.50
2023-01-08T13:10:26.927Z,49.25
2023-01-08T13:12:57.621Z,41.25
2023-01-08T13:15:28.576Z,38.50
2023-01-08T13:17:59.567Z,41.00
2023-01-08T13:20:31.295Z,37.00
2023-01-08T13:23:03.335Z,49.33
2023-01-08T13:25:35.535Z,36.50
2023-01-08T13:28:19.794Z,45.25
2023-01-08T13:30:50.065Z,44.00
2023-01-08T13:33:41.859Z,43.50
2023-01-08T13:36:21.030Z,39.75
2023-01-08T13:39:03.218Z,42.75
2023-01-08T13:41:34.242Z,40.50
2023-01-08T13:44:06.242Z,42.50
2023-01-08T13:46:40.897Z,41.00
2023-01-08T13:49:11.821Z,43.00
2023-01-08T13:51:43.702Z,41.50
2023-01-08T13:54:22.325Z,40.50
2023-01-08T13:56:55.936Z,41.00
2023-01-08T13:59:38.424Z,62.75
2023-01-08T14:02:24.575Z,36.00
2023-01-08T14:04:54.334Z,38.50
2023-01-08T14:07:24.811Z,39.25
2023-01-08T14:09:55.191Z,34.50
2023-01-08T14:12:25.811Z,39.00
2023-01-08T14:14:59.906Z,45.75
2023-01-08T14:17:32.503Z,51.50
2023-01-08T14:20:01.572Z,49.50
2023-01-08T14:22:34.918Z,50.50
2023-01-08T14:25:07.776Z,50.00
2023-01-08T14:27:36.726Z,50.00
2023-01-08T14:30:17.326Z,48.75
2023-01-08T14:32:46.470Z,51.00
2023-01-08T14:35:19.483Z,42.75
2023-01-08T14:37:48.395Z,48.75
2023-01-08T14:40:29.000Z,49.50
2023-01-08T14:43:04.425Z,51.50
2023-01-08T14:45:34.505Z,51.25
2023-01-08T14:48:12.168Z,51.75
2023-01-08T14:50:43.647Z,54.00
2023-01-08T14:53:21.762Z,49.50
2023-01-08T14:55:55.416Z,52.50
2023-01-08T14:58:26.915Z,52.25
2023-01-08T15:01:00.149Z,51.25
2023-01-08T15:03:35.337Z,51.75
2023-01-08T15:06:04.385Z,52.25
2023-01-08T15:08:36.906Z,51.00
2023-01-08T15:11:15.519Z,51.75
2023-01-08T15:13:44.502Z,55.33
2023-01-08T15:16:18.547Z,52.33
2023-01-08T15:18:50.416Z,53.00
2023-01-08T15:21:21.384Z,84.50
2023-01-08T15:23:54.822Z,57.33
2023-01-08T15:26:25.786Z,54.75
2023-01-08T15:28:57.822Z,52.00
2023-01-08T15:31:31.678Z,54.00
2023-01-08T15:34:01.681Z,52.25
2023-01-08T15:36:30.271Z,49.00
2023-01-08T15:38:59.085Z,51.75
2023-01-08T15:41:53.534Z,49.50
2023-01-08T15:44:22.745Z,49.25
2023-01-08T15:46:52.648Z,46.00
2023-01-08T15:49:21.739Z,48.50
2023-01-08T15:51:52.473Z,50.25
2023-01-08T15:54:24.691Z,52.00
2023-01-08T15:56:54.742Z,48.00
2023-01-08T15:59:23.772Z,49.00
2023-01-08T16:01:52.480Z,50.25
2023-01-08T16:04:21.514Z,47.00
2023-01-08T16:06:52.271Z,49.00
2023-01-08T16:09:21.191Z,46.00
2023-01-08T16:11:50.490Z,50.75
2023-01-08T16:14:20.942Z,44.50
2023-01-08T16:16:49.550Z,51.25
2023-01-08T16:19:18.376Z,49.50
2023-01-08T16:21:50.197Z,48.75
2023-01-08T16:24:19.089Z,46.00
2023-01-08T16:26:47.683Z,47.00
2023-01-08T16:29:16.964Z,47.00
2023-01-08T16:31:48.430Z,47.75
2023-01-08T16:34:17.643Z,42.75
2023-01-08T16:36:46.257Z,46.25
2023-01-08T16:39:15.207Z,48.50
2023-01-08T16:41:44.039Z,49.25
2023-01-08T16:44:20.005Z,49.50
2023-01-08T16:46:51.038Z,50.50
2023-01-08T16:49:20.013Z,51.00
2023-01-08T16:51:48.724Z,51.25
2023-01-08T16:54:18.602Z,52.50
2023-01-08T16:56:47.366Z,52.00
2023-01-08T16:59:23.223Z,51.00
2023-01-08T17:01:54.495Z,50.50
2023-01-08T17:04:23.446Z,47.50
2023-01-08T17:06:52.140Z,51.25
2023-01-08T17:09:21.043Z,49.75
2023-01-08T17:11:49.751Z,52.25
2023-01-08T17:14:18.634Z,52.50
2023-01-08T17:16:47.735Z,53.00
2023-01-08T17:19:18.281Z,55.25
2023-01-08T17:21:48.177Z,53.00
2023-01-08T17:24:17.525Z,53.50
2023-01-08T17:26:46.399Z,51.75
2023-01-08T17:29:15.387Z,51.00
2023-01-08T17:31:44.079Z,52.50
2023-01-08T17:34:14.861Z,53.50
2023-01-08T17:36:44.940Z,61.67
2023-01-08T17:39:13.919Z,58.33
2023-01-08T17:41:59.948Z,56.50
2023-01-08T17:44:31.102Z,57.00
2023-01-08T17:46:59.743Z,52.00
2023-01-08T17:49:30.680Z,50.50
2023-01-08T17:52:00.968Z,49.00
2023-01-08T17:54:30.978Z,47.50
2023-01-08T17:56:59.561Z,45.25
2023-01-08T17:59:28.870Z,43.50
2023-01-08T18:01:58.045Z,44.50
2023-01-08T18:04:27.029Z,46.25
2023-01-08T18:06:55.711Z,46.50
2023-01-08T18:09:25.769Z,48.25
2023-01-08T18:11:55.102Z,46.50
2023-01-08T18:14:24.180Z,46.25
2023-01-08T18:16:53.817Z,46.50
2023-01-08T18:19:22.821Z,48.50
2023-01-08T18:21:51.374Z,49.00
2023-01-08T18:24:20.242Z,48.00
2023-01-08T18:26:51.746Z,51.25
2023-01-08T18:29:20.680Z,49.00
2023-01-08T18:31:49.209Z,46.50
2023-01-08T18:34:18.213Z,48.75
2023-01-08T18:36:46.776Z,49.00
2023-01-08T18:39:16.022Z,50.00
2023-01-08T18:42:02.058Z,49.75
2023-01-08T18:44:32.409Z,52.25
2023-01-08T18:47:00.957Z,48.50
2023-01-08T18:49:30.102Z,48.25
2023-01-08T18:51:58.730Z,49.00
2023-01-08T18:54:27.722Z,50.25
2023-01-08T18:56:56.215Z,46.50
2023-01-08T18:59:25.547Z,47.75
2023-01-08T19:01:55.551Z,46.50
2023-01-08T19:04:24.575Z,47.25
2023-01-08T19:06:53.835Z,50.00
2023-01-08T19:09:22.832Z,45.75
2023-01-08T19:11:51.229Z,41.75
2023-01-08T19:14:20.110Z,46.00
2023-01-08T19:16:51.557Z,38.25
2023-01-08T19:19:21.874Z,47.00
2023-01-08T19:21:50.599Z,46.50
2023-01-08T19:24:19.496Z,42.50
2023-01-08T19:26:48.293Z,46.50
2023-01-08T19:29:17.161Z,46.25
2023-01-08T19:31:46.067Z,47.00
2023-01-08T19:34:14.987Z,46.50
2023-01-08T19:36:45.000Z,54.00
2023-01-08T19:39:14.070Z,47.75
2023-01-08T19:41:59.737Z,47.75
2023-01-08T19:44:28.681Z,40.25
2023-01-08T19:46:57.185Z,45.25
2023-01-08T19:49:26.067Z,42.25
2023-01-08T19:51:55.994Z,47.75
2023-01-08T19:54:25.969Z,43.25
2023-01-08T19:56:54.859Z,43.00
2023-01-08T19:59:24.800Z,42.50
2023-01-08T20:01:53.400Z,44.00
2023-01-08T20:04:22.389Z,43.25
2023-01-08T20:06:52.411Z,46.00
2023-01-08T20:09:22.675Z,40.50
2023-01-08T20:11:51.446Z,39.75
2023-01-08T20:14:21.223Z,45.25
2023-01-08T20:16:49.849Z,40.75
2023-01-08T20:19:18.660Z,43.25
2023-01-08T20:21:47.222Z,39.00
2023-01-08T20:24:16.199Z,40.00
2023-01-08T20:26:47.419Z,39.25
2023-01-08T20:29:18.173Z,39.50
2023-01-08T20:31:46.769Z,38.25
2023-01-08T20:34:17.375Z,43.50
2023-01-08T20:36:46.509Z,47.50
2023-01-08T20:39:17.434Z,42.50
2023-01-08T20:41:55.592Z,15.50
2023-01-08T20:44:32.421Z,39.75
2023-01-08T20:47:01.576Z,34.75
2023-01-08T20:49:30.518Z,40.00
2023-01-08T20:52:00.368Z,40.25
2023-01-08T20:54:30.486Z,21.00
2023-01-08T20:57:01.644Z,38.25
2023-01-08T20:59:30.892Z,42.00
2023-01-08T21:01:59.556Z,41.25
2023-01-08T21:04:28.636Z,55.50
2023-01-08T21:06:57.559Z,44.00
2023-01-08T21:09:26.588Z,41.00
2023-01-08T21:11:55.126Z,41.50
2023-01-08T21:14:25.406Z,39.75
2023-01-08T21:16:54.333Z,40.00
2023-01-08T21:19:23.553Z,37.25
2023-01-08T21:21:52.372Z,35.00
2023-01-08T21:24:21.584Z,36.00
2023-01-08T21:26:50.250Z,35.50
2023-01-08T21:29:20.984Z,36.75
2023-01-08T21:31:51.012Z,38.00
2023-01-08T21:34:20.417Z,40.50
2023-01-08T21:36:49.036Z,39.75
2023-01-08T21:39:18.022Z,38.00
2023-01-08T21:42:03.388Z,39.25
2023-01-08T21:44:49.536Z,41.00
2023-01-08T21:47:19.839Z,38.75
2023-01-08T21:49:49.649Z,40.50
2023-01-08T21:52:36.520Z,42.75
2023-01-08T21:55:05.898Z,42.00
2023-01-08T21:57:39.680Z,39.50
2023-01-08T22:00:10.057Z,40.00
2023-01-08T22:02:40.076Z,41.25
2023-01-08T22:05:09.939Z,39.75
2023-01-08T22:07:38.920Z,31.50
2023-01-08T22:10:09.422Z,37.75
2023-01-08T22:12:38.120Z,41.00
2023-01-08T22:15:08.131Z,39.75
2023-01-08T22:17:37.062Z,39.75
2023-01-08T22:20:09.819Z,43.50
2023-01-08T22:22:38.945Z,40.50
2023-01-08T22:25:09.434Z,38.75
2023-01-08T22:27:38.282Z,40.25
2023-01-08T22:30:08.639Z,41.00
2023-01-08T22:32:37.220Z,37.00
2023-01-08T22:35:07.813Z,41.25
2023-01-08T22:37:36.809Z,38.50
2023-01-08T22:40:06.484Z,35.75
2023-01-08T22:42:35.156Z,37.00
2023-01-08T22:45:04.207Z,40.25
2023-01-08T22:47:32.800Z,39.50
2023-01-08T22:50:01.660Z,37.50
2023-01-08T22:52:31.555Z,36.00
2023-01-08T22:55:00.490Z,37.00
2023-01-08T22:57:29.075Z,38.00
2023-01-08T22:59:57.944Z,33.75
2023-01-08T23:02:26.509Z,39.50
2023-01-08T23:04:55.588Z,37.00
2023-01-08T23:07:24.055Z,39.00
2023-01-08T23:09:54.506Z,37.00
2023-01-08T23:12:23.280Z,37.00
2023-01-08T23:14:52.253Z,35.75
2023-01-08T23:17:20.772Z,35.75
2023-01-08T23:19:49.666Z,40.25
2023-01-08T23:22:18.792Z,35.50
2023-01-08T23:24:47.624Z,37.00
2023-01-08T23:27:17.522Z,36.50
2023-01-08T23:29:46.543Z,33.00
2023-01-08T23:32:15.048Z,35.50
2023-01-08T23:34:43.934Z,34.25
2023-01-08T23:37:12.456Z,29.00
2023-01-08T23:39:41.641Z,35.75
2023-01-08T23:42:11.282Z,35.25
2023-01-08T23:44:41.724Z,36.00
2023-01-08T23:47:10.331Z,35.25
2023-01-08T23:49:39.132Z,37.00
2023-01-08T23:52:07.685Z,35.25
2023-01-08T23:54:36.927Z,37.00
2023-01-08T23:57:07.009Z,37.50
2023-01-08T23:59:35.874Z,37.50
